Time;durP1;ratioP1;P1;durP2;ratioP2;P2;SDS_P1;SDS_P2;PMS_P1;PMS_P2;Temp;Humidity;BMP_temperature;BMP_pressure;BME280_temperature;BME280_humidity;BME280_pressure;Samples;Min_cycle;Max_cycle;Signal;HPM_P1;HPM_P2
2022/04/09 00:00:48;;;;;;;0.20;0.20;;;3.20;99.90;;;;;;4959791;28;20221;-87
2022/04/09 00:03:14;;;;;;;1.43;0.40;;;3.40;99.90;;;;;;4960128;28;20734;-87
2022/04/09 00:05:39;;;;;;;0.20;0.20;;;3.60;99.90;;;;;;4960038;28;20183;-86
2022/04/09 00:08:05;;;;;;;0.20;0.20;;;3.50;99.90;;;;;;4960045;28;20180;-86
2022/04/09 00:10:31;;;;;;;0.20;0.20;;;3.40;99.90;;;;;;4976249;28;20195;-87
2022/04/09 00:12:57;;;;;;;0.20;0.20;;;3.40;99.90;;;;;;4975889;28;20266;-86
2022/04/09 00:15:23;;;;;;;0.77;0.30;;;3.40;99.90;;;;;;4959764;28;20215;-86
2022/04/09 00:17:49;;;;;;;0.30;0.30;;;3.30;99.90;;;;;;4959055;28;20237;-87
2022/04/09 00:20:18;;;;;;;0.20;0.20;;;3.30;99.90;;;;;;4960090;28;20190;-86
2022/04/09 00:22:45;;;;;;;0.70;0.50;;;3.40;99.90;;;;;;4975994;28;20230;-86
2022/04/09 00:25:14;;;;;;;0.37;0.37;;;3.30;99.90;;;;;;4974613;28;20192;-86
2022/04/09 00:27:41;;;;;;;0.30;0.30;;;3.30;99.90;;;;;;4975760;28;20184;-87
2022/04/09 00:30:09;;;;;;;0.40;0.40;;;3.30;99.90;;;;;;4978073;28;20190;-86
2022/04/09 00:32:35;;;;;;;0.40;0.40;;;3.20;99.90;;;;;;4979164;28;20206;-87
2022/04/09 00:35:02;;;;;;;0.30;0.30;;;3.20;99.90;;;;;;4978980;28;20185;-87
2022/04/09 00:37:29;;;;;;;0.30;0.30;;;3.30;99.90;;;;;;4979178;28;20186;-86
2022/04/09 00:39:55;;;;;;;0.27;0.27;;;3.40;99.90;;;;;;4978637;28;20217;-87
2022/04/09 00:42:21;;;;;;;0.30;0.30;;;3.50;99.90;;;;;;4978707;28;20191;-87
2022/04/09 00:44:47;;;;;;;0.30;0.30;;;3.60;99.90;;;;;;4979076;28;20204;-86
2022/04/09 00:47:14;;;;;;;0.30;0.30;;;3.50;99.90;;;;;;4979212;28;20229;-86
2022/04/09 00:49:40;;;;;;;0.47;0.47;;;3.30;99.90;;;;;;4979072;28;20206;-86
2022/04/09 00:52:08;;;;;;;0.30;0.30;;;3.10;99.90;;;;;;4979492;28;20190;-86
2022/04/09 00:54:39;;;;;;;0.50;0.50;;;3.10;99.90;;;;;;4995631;28;20301;-87
2022/04/09 00:57:06;;;;;;;0.87;0.40;;;3.10;99.90;;;;;;4979313;28;20233;-86
2022/04/09 00:59:36;;;;;;;0.40;0.40;;;3.10;99.90;;;;;;4975862;28;20246;-87
2022/04/09 01:02:03;;;;;;;0.33;0.33;;;3.20;99.90;;;;;;4959622;28;20236;-87
2022/04/09 01:04:30;;;;;;;0.40;0.40;;;3.20;99.90;;;;;;4959869;28;20179;-86
2022/04/09 01:06:56;;;;;;;0.47;0.47;;;3.10;99.90;;;;;;4959076;28;20211;-87
2022/04/09 01:09:22;;;;;;;0.50;0.50;;;3.20;99.90;;;;;;4974697;28;20205;-86
2022/04/09 01:11:50;;;;;;;0.50;0.50;;;3.40;99.90;;;;;;4959151;28;20262;-86
2022/04/09 01:14:16;;;;;;;0.97;0.60;;;3.50;99.90;;;;;;4958916;28;20224;-86
2022/04/09 01:16:42;;;;;;;0.40;0.40;;;3.60;99.90;;;;;;4958902;28;20214;-86
2022/04/09 01:19:08;;;;;;;0.50;0.50;;;3.60;99.90;;;;;;4958866;28;20219;-86
2022/04/09 01:21:39;;;;;;;0.50;0.50;;;3.60;99.90;;;;;;4959113;28;20176;-87
2022/04/09 01:24:05;;;;;;;0.50;0.50;;;3.60;99.90;;;;;;4958432;28;20289;-87
2022/04/09 01:26:35;;;;;;;0.50;0.50;;;3.70;99.90;;;;;;4959040;28;20611;-86
2022/04/09 01:29:03;;;;;;;0.60;0.60;;;3.50;99.90;;;;;;4964902;28;20199;-87
2022/04/09 01:31:29;;;;;;;0.70;0.70;;;3.60;99.90;;;;;;4958733;28;20187;-87
2022/04/09 01:33:55;;;;;;;0.70;0.70;;;3.60;99.90;;;;;;4974632;28;20261;-87
2022/04/09 01:36:21;;;;;;;0.97;0.70;;;3.60;99.90;;;;;;4974458;28;20203;-86
2022/04/09 01:38:47;;;;;;;0.67;0.67;;;3.50;99.90;;;;;;4974098;28;20215;-87
2022/04/09 01:41:14;;;;;;;0.80;0.80;;;3.50;99.90;;;;;;4958518;28;20180;-87
2022/04/09 01:43:46;;;;;;;0.73;0.73;;;3.60;99.90;;;;;;4975146;28;20206;-87
2022/04/09 01:46:12;;;;;;;1.10;1.00;;;3.50;99.90;;;;;;4974476;28;20188;-87
2022/04/09 01:48:37;;;;;;;1.07;1.00;;;3.60;99.90;;;;;;4958260;28;20194;-86
2022/04/09 01:51:05;;;;;;;0.90;0.90;;;3.70;99.90;;;;;;4974537;28;20195;-86
2022/04/09 01:53:33;;;;;;;1.13;1.10;;;3.70;99.90;;;;;;4974000;28;20207;-87
2022/04/09 01:55:59;;;;;;;1.17;1.00;;;3.70;99.90;;;;;;4958641;28;20190;-86
2022/04/09 01:58:29;;;;;;;1.60;1.00;;;3.70;99.90;;;;;;4959822;28;20203;-87
2022/04/09 02:00:58;;;;;;;0.90;0.90;;;3.70;99.90;;;;;;4958171;28;20187;-86
2022/04/09 02:03:27;;;;;;;2.33;1.33;;;3.70;99.90;;;;;;4974455;28;20204;-86
2022/04/09 02:05:54;;;;;;;1.20;1.10;;;3.80;99.90;;;;;;4974145;28;20675;-87
2022/04/09 02:08:20;;;;;;;1.33;1.20;;;3.90;99.90;;;;;;4974284;28;20211;-87
2022/04/09 02:10:46;;;;;;;1.30;1.17;;;3.90;99.90;;;;;;4957615;28;20275;-86
2022/04/09 02:13:14;;;;;;;1.30;1.20;;;3.90;99.90;;;;;;4974338;28;20204;-86
2022/04/09 02:15:41;;;;;;;1.30;1.20;;;3.90;99.90;;;;;;4974320;28;20191;-86
2022/04/09 02:18:07;;;;;;;1.47;1.30;;;3.90;99.90;;;;;;4957872;28;20222;-86
2022/04/09 02:20:33;;;;;;;1.80;1.30;;;3.90;99.90;;;;;;4973923;28;20234;-87
2022/04/09 02:22:59;;;;;;;6.10;1.50;;;3.90;99.90;;;;;;4973769;28;20207;-86
2022/04/09 02:25:25;;;;;;;2.13;1.40;;;4.00;99.90;;;;;;4973987;28;20180;-86
2022/04/09 02:27:51;;;;;;;1.37;1.27;;;4.00;99.90;;;;;;4974233;28;20175;-86
2022/04/09 02:30:23;;;;;;;1.63;1.40;;;4.00;99.90;;;;;;4958533;28;20180;-87
2022/04/09 02:32:54;;;;;;;1.20;1.10;;;4.00;99.90;;;;;;4958227;28;20227;-87
2022/04/09 02:35:23;;;;;;;2.30;1.50;;;4.00;99.90;;;;;;4958496;28;20208;-86
2022/04/09 02:37:51;;;;;;;1.30;1.20;;;4.00;99.90;;;;;;4957942;28;20225;-86
2022/04/09 02:40:17;;;;;;;1.83;1.30;;;4.00;99.90;;;;;;4958211;28;20184;-87
2022/04/09 02:42:44;;;;;;;2.20;1.37;;;4.00;99.90;;;;;;4961387;28;20202;-87
2022/04/09 02:45:11;;;;;;;1.83;1.63;;;4.10;99.90;;;;;;4961345;28;20665;-87
2022/04/09 02:47:39;;;;;;;1.50;1.40;;;4.00;99.90;;;;;;4961954;28;20219;-87
2022/04/09 02:50:10;;;;;;;2.60;1.80;;;4.10;99.90;;;;;;4962044;28;20274;-86
2022/04/09 02:52:39;;;;;;;1.80;1.70;;;4.20;99.90;;;;;;4961341;28;20239;-87
2022/04/09 02:55:07;;;;;;;2.47;1.70;;;4.20;99.90;;;;;;4961616;28;20209;-86
2022/04/09 02:57:34;;;;;;;1.50;1.40;;;4.20;99.90;;;;;;4961246;28;20180;-87
2022/04/09 03:00:05;;;;;;;2.07;1.40;;;4.20;99.90;;;;;;4975142;28;20262;-87
2022/04/09 03:02:34;;;;;;;1.60;1.50;;;4.30;99.90;;;;;;4976992;28;20224;-87
2022/04/09 03:05:00;;;;;;;1.60;1.50;;;4.20;99.90;;;;;;4977349;28;20196;-86
2022/04/09 03:07:26;;;;;;;1.50;1.40;;;4.30;99.90;;;;;;4977178;28;20176;-87
2022/04/09 03:09:51;;;;;;;2.03;1.57;;;4.20;99.90;;;;;;4960928;28;20326;-87
2022/04/09 03:12:17;;;;;;;1.60;1.50;;;4.20;99.90;;;;;;4976933;28;20281;-86
2022/04/09 03:14:46;;;;;;;1.90;1.30;;;4.20;99.90;;;;;;4976881;28;20188;-87
2022/04/09 03:17:13;;;;;;;1.50;1.40;;;4.10;99.90;;;;;;4960910;28;20203;-87
2022/04/09 03:19:40;;;;;;;2.30;1.77;;;4.10;99.90;;;;;;4960837;28;20293;-87
2022/04/09 03:22:07;;;;;;;2.20;1.50;;;4.10;99.90;;;;;;4960892;28;20180;-86
2022/04/09 03:24:35;;;;;;;2.67;1.50;;;4.10;99.90;;;;;;4976741;28;20281;-87
2022/04/09 03:27:02;;;;;;;1.20;1.10;;;4.10;99.90;;;;;;4960485;28;20186;-86
2022/04/09 03:29:32;;;;;;;1.50;1.40;;;4.00;99.90;;;;;;4960524;28;20187;-86
2022/04/09 03:32:00;;;;;;;1.60;1.50;;;3.90;99.90;;;;;;4976582;28;20184;-86
2022/04/09 03:34:28;;;;;;;1.27;1.17;;;3.80;99.90;;;;;;4976576;28;20255;-86
2022/04/09 03:36:56;;;;;;;1.40;1.30;;;3.80;99.90;;;;;;4976586;28;20191;-86
2022/04/09 03:39:22;;;;;;;1.40;1.30;;;3.80;99.90;;;;;;4976265;28;20211;-86
2022/04/09 03:41:48;;;;;;;1.80;1.47;;;3.80;99.90;;;;;;4960328;28;20183;-86
2022/04/09 03:44:14;;;;;;;2.33;1.50;;;3.70;99.90;;;;;;4960220;28;20207;-87
2022/04/09 03:46:46;;;;;;;1.43;1.33;;;3.80;99.90;;;;;;4960988;28;20177;-86
2022/04/09 03:49:16;;;;;;;1.63;1.50;;;3.80;99.90;;;;;;4960827;28;20202;-86
2022/04/09 03:51:43;;;;;;;2.10;1.90;;;3.80;99.90;;;;;;4958681;28;20188;-86
2022/04/09 03:54:11;;;;;;;2.53;1.80;;;3.80;99.90;;;;;;4959976;28;20200;-86
2022/04/09 03:56:40;;;;;;;2.30;1.63;;;3.80;99.90;;;;;;4960481;28;20203;-86
2022/04/09 03:59:08;;;;;;;2.13;1.93;;;3.80;99.90;;;;;;4959801;28;20212;-86
2022/04/09 04:01:34;;;;;;;2.77;2.00;;;3.80;99.90;;;;;;4959984;28;20168;-86
2022/04/09 04:04:06;;;;;;;3.30;2.20;;;3.80;99.90;;;;;;4960738;28;20211;-86
2022/04/09 04:06:32;;;;;;;2.40;2.20;;;3.90;99.90;;;;;;4960207;28;20234;-86
2022/04/09 04:09:02;;;;;;;2.47;2.27;;;3.90;99.90;;;;;;4976020;28;20204;-86
2022/04/09 04:11:29;;;;;;;2.23;2.03;;;4.00;99.90;;;;;;4960294;28;20271;-86
2022/04/09 04:13:55;;;;;;;3.20;2.60;;;4.00;99.90;;;;;;4976072;28;20195;-86
2022/04/09 04:16:23;;;;;;;3.13;2.43;;;4.00;99.90;;;;;;4960286;28;20187;-86
2022/04/09 04:18:50;;;;;;;2.33;2.13;;;4.00;99.90;;;;;;4959446;28;20218;-87
2022/04/09 04:21:17;;;;;;;2.23;2.03;;;4.00;99.90;;;;;;4975833;28;20176;-87
2022/04/09 04:23:50;;;;;;;2.03;1.87;;;3.90;99.90;;;;;;4961246;28;20246;-86
2022/04/09 04:26:20;;;;;;;2.37;2.17;;;4.00;99.90;;;;;;4960560;28;20238;-86
2022/04/09 04:28:48;;;;;;;3.67;3.13;;;4.00;99.90;;;;;;4967505;28;20202;-86
2022/04/09 04:31:16;;;;;;;3.37;2.73;;;3.90;99.90;;;;;;4979986;28;20179;-86
2022/04/09 04:33:44;;;;;;;4.10;3.47;;;3.90;99.90;;;;;;4980029;28;20230;-86
2022/04/09 04:36:10;;;;;;;3.87;3.57;;;4.00;99.90;;;;;;4980698;28;20187;-86
2022/04/09 04:38:40;;;;;;;4.67;4.17;;;4.00;99.90;;;;;;4980900;28;20298;-86
2022/04/09 04:41:06;;;;;;;4.33;3.93;;;3.90;99.90;;;;;;4980281;28;20282;-86
2022/04/09 04:43:33;;;;;;;7.47;4.87;;;3.90;99.90;;;;;;4979922;28;20203;-86
2022/04/09 04:46:02;;;;;;;4.83;4.30;;;4.00;99.90;;;;;;4979078;28;20656;-86
2022/04/09 04:48:29;;;;;;;6.00;5.17;;;4.00;99.90;;;;;;4979266;28;20187;-87
2022/04/09 04:50:57;;;;;;;7.37;5.43;;;4.00;99.90;;;;;;4978951;28;20214;-86
2022/04/09 04:53:27;;;;;;;6.90;5.83;;;4.00;99.90;;;;;;4978921;28;20270;-86
2022/04/09 04:55:57;;;;;;;8.60;6.53;;;4.10;99.90;;;;;;4977156;28;20186;-86
2022/04/09 04:58:29;;;;;;;8.70;6.97;;;4.10;99.90;;;;;;4973657;28;20208;-86
2022/04/09 05:01:02;;;;;;;10.17;8.00;;;4.10;99.90;;;;;;4974936;28;20190;-86
2022/04/09 05:03:28;;;;;;;9.93;8.07;;;4.10;99.90;;;;;;4956933;28;20234;-86
2022/04/09 05:06:04;;;;;;;10.63;8.80;;;4.10;99.90;;;;;;4958450;28;20191;-86
2022/04/09 05:08:30;;;;;;;11.83;8.37;;;4.10;99.90;;;;;;4973398;28;20326;-86
2022/04/09 05:10:56;;;;;;;11.80;9.17;;;4.00;99.90;;;;;;4964981;28;20241;-86
2022/04/09 05:13:27;;;;;;;12.23;8.90;;;4.10;99.90;;;;;;4971159;28;20204;-86
2022/04/09 05:15:55;;;;;;;12.93;8.80;;;4.10;99.90;;;;;;4968361;28;20180;-86
2022/04/09 05:18:22;;;;;;;10.10;9.10;;;4.10;99.90;;;;;;4969316;28;20723;-86
2022/04/09 05:20:51;;;;;;;11.47;8.20;;;4.00;99.90;;;;;;4981468;28;20184;-86
2022/04/09 05:23:19;;;;;;;10.77;8.63;;;4.00;99.90;;;;;;4973385;28;20195;-86
2022/04/09 05:25:46;;;;;;;10.50;8.70;;;4.10;99.90;;;;;;4975052;28;20176;-86
2022/04/09 05:28:14;;;;;;;8.03;7.20;;;4.10;99.90;;;;;;4980704;28;20179;-86
2022/04/09 05:30:44;;;;;;;10.37;8.00;;;4.00;99.90;;;;;;4980898;28;20183;-86
2022/04/09 05:33:10;;;;;;;11.07;8.30;;;4.00;99.90;;;;;;4977662;28;20192;-86
2022/04/09 05:35:40;;;;;;;8.90;7.73;;;4.10;99.90;;;;;;4971904;28;20691;-86
2022/04/09 05:38:08;;;;;;;11.00;9.00;;;4.10;99.90;;;;;;4976983;28;20180;-86
2022/04/09 05:40:36;;;;;;;13.50;10.33;;;4.20;99.90;;;;;;4976730;28;20271;-86
2022/04/09 05:43:12;;;;;;;9.67;8.40;;;4.30;99.90;;;;;;4962259;28;20191;-86
2022/04/09 05:45:39;;;;;;;10.63;8.43;;;4.30;99.90;;;;;;4977093;28;20180;-86
2022/04/09 05:48:05;;;;;;;11.90;9.80;;;4.30;99.90;;;;;;4976754;28;20182;-86
2022/04/09 05:51:09;;;;;;;12.43;9.03;;;4.20;99.90;;;;;;4961443;28;20172;-86
2022/04/09 05:53:40;;;;;;;11.87;9.53;;;4.30;99.90;;;;;;4961186;28;20278;-86
2022/04/09 05:56:07;;;;;;;10.57;8.40;;;4.30;99.90;;;;;;4961119;28;20230;-86
2022/04/09 05:58:41;;;;;;;12.63;10.63;;;4.30;99.90;;;;;;4961018;28;20250;-86
2022/04/09 06:01:29;;;;;;;9.60;7.97;;;4.40;99.90;;;;;;4976530;28;20243;-86
2022/04/09 06:03:55;;;;;;;12.03;7.63;;;4.40;99.90;;;;;;4971713;28;20211;-86
2022/04/09 06:06:22;;;;;;;10.97;8.83;;;4.50;99.90;;;;;;4960468;28;20180;-88
2022/04/09 06:08:56;;;;;;;10.13;7.77;;;4.50;99.90;;;;;;4961227;28;20199;-86
2022/04/09 06:11:44;;;;;;;9.77;7.93;;;4.60;99.90;;;;;;4963560;28;20653;-86
2022/04/09 06:14:16;;;;;;;9.00;6.90;;;4.60;99.90;;;;;;4961310;28;20203;-86
2022/04/09 06:16:43;;;;;;;11.40;8.20;;;4.60;99.90;;;;;;4959326;28;20180;-86
2022/04/09 06:19:16;;;;;;;12.70;8.57;;;4.70;99.90;;;;;;4960049;28;20207;-86
2022/04/09 06:21:43;;;;;;;9.27;6.87;;;4.70;99.90;;;;;;4960261;28;20172;-86
2022/04/09 06:24:12;;;;;;;10.27;7.57;;;4.80;99.90;;;;;;4960440;28;20246;-85
2022/04/09 06:26:39;;;;;;;8.20;5.77;;;4.80;99.90;;;;;;4976443;28;20171;-85
2022/04/09 06:29:05;;;;;;;8.27;6.10;;;4.70;99.90;;;;;;4966764;28;20512;-86
2022/04/09 06:31:31;;;;;;;5.83;4.90;;;4.80;99.90;;;;;;4976177;28;20207;-86
2022/04/09 06:33:58;;;;;;;8.60;4.97;;;4.70;99.90;;;;;;4960312;28;20206;-86
2022/04/09 06:36:24;;;;;;;6.30;4.60;;;4.80;99.90;;;;;;4972848;28;20180;-87
2022/04/09 06:38:50;;;;;;;6.40;4.60;;;4.70;99.90;;;;;;4976757;28;20291;-88
2022/04/09 06:41:28;;;;;;;5.43;4.93;;;4.70;99.90;;;;;;4981631;28;20167;-87
2022/04/09 06:43:56;;;;;;;6.60;4.83;;;4.70;99.90;;;;;;4995304;28;20200;-87
2022/04/09 06:46:46;;;;;;;5.87;4.77;;;4.80;99.90;;;;;;4990944;28;20175;-88
2022/04/09 06:49:32;;;;;;;8.20;6.53;;;5.00;99.90;;;;;;4997729;28;20187;-86
2022/04/09 06:52:50;;;;;;;9.37;6.20;;;5.00;99.90;;;;;;4988352;28;20207;-87
2022/04/09 06:55:28;;;;;;;6.03;4.50;;;5.20;99.90;;;;;;4993237;28;20183;-86
2022/04/09 06:58:00;;;;;;;5.70;4.43;;;5.30;99.90;;;;;;4973040;28;20192;-87
2022/04/09 07:00:29;;;;;;;6.03;3.90;;;5.40;99.90;;;;;;4972576;28;20183;-87
2022/04/09 07:02:55;;;;;;;6.83;4.10;;;5.50;99.90;;;;;;4957493;28;20195;-87
2022/04/09 07:05:21;;;;;;;5.37;3.90;;;5.50;99.90;;;;;;4958219;28;20692;-87
2022/04/09 07:07:51;;;;;;;8.37;4.10;;;5.60;99.90;;;;;;4957778;28;20203;-86
2022/04/09 07:10:17;;;;;;;7.17;4.13;;;5.50;99.90;;;;;;4973849;28;20184;-86
2022/04/09 07:12:45;;;;;;;7.20;4.10;;;5.40;99.90;;;;;;4958049;28;20224;-87
2022/04/09 07:15:11;;;;;;;5.37;3.80;;;5.30;99.90;;;;;;4958483;28;20183;-87
2022/04/09 07:17:38;;;;;;;6.67;4.00;;;5.20;99.90;;;;;;4975633;28;20210;-87
2022/04/09 07:20:06;;;;;;;4.80;3.50;;;5.30;99.90;;;;;;4975527;28;20207;-87
2022/04/09 07:22:37;;;;;;;7.20;3.80;;;5.20;99.90;;;;;;4975525;28;20224;-86
2022/04/09 07:25:04;;;;;;;5.77;3.40;;;5.20;99.90;;;;;;4976133;28;20169;-86
2022/04/09 07:27:50;;;;;;;5.93;3.47;;;5.20;99.90;;;;;;4961517;28;20212;-88
2022/04/09 07:30:18;;;;;;;4.87;3.50;;;5.20;99.90;;;;;;4982338;28;20251;-86
2022/04/09 07:32:45;;;;;;;6.13;3.60;;;5.20;99.90;;;;;;4982666;28;20573;-87
2022/04/09 07:35:14;;;;;;;5.23;3.27;;;5.30;99.90;;;;;;4982105;28;20187;-86
2022/04/09 07:37:47;;;;;;;4.83;3.40;;;5.40;99.90;;;;;;4982490;28;20187;-86
2022/04/09 07:40:15;;;;;;;5.10;3.37;;;5.50;99.90;;;;;;4982462;28;20207;-86
2022/04/09 07:42:43;;;;;;;7.87;3.83;;;5.60;99.90;;;;;;4980274;28;20207;-86
2022/04/09 07:45:10;;;;;;;7.40;3.47;;;5.60;99.90;;;;;;4979944;28;20190;-85
2022/04/09 07:47:36;;;;;;;7.27;3.80;;;5.60;99.90;;;;;;4979725;28;20234;-86
2022/04/09 07:50:06;;;;;;;6.60;3.53;;;5.70;99.90;;;;;;4979574;28;20183;-86
2022/04/09 07:52:32;;;;;;;3.77;3.43;;;5.70;99.90;;;;;;4980005;28;20213;-86
2022/04/09 07:54:58;;;;;;;6.07;3.27;;;5.70;99.90;;;;;;4979725;28;20180;-86
2022/04/09 07:57:27;;;;;;;8.27;3.40;;;5.70;99.90;;;;;;4979734;28;20195;-86
2022/04/09 07:59:55;;;;;;;8.27;3.70;;;5.70;99.90;;;;;;4979374;28;20211;-86
2022/04/09 08:02:22;;;;;;;6.67;3.70;;;5.90;99.90;;;;;;4979402;28;20179;-86
2022/04/09 08:04:48;;;;;;;5.70;3.23;;;6.00;99.90;;;;;;4979713;28;20179;-86
2022/04/09 08:07:14;;;;;;;4.63;3.30;;;6.10;99.90;;;;;;4980222;28;20171;-86
2022/04/09 08:09:40;;;;;;;4.63;3.43;;;6.20;99.90;;;;;;4981523;28;20237;-86
2022/04/09 08:12:06;;;;;;;5.30;3.13;;;6.20;99.90;;;;;;4981624;28;20182;-86
2022/04/09 08:14:33;;;;;;;5.33;3.57;;;6.20;99.90;;;;;;4981461;28;20260;-86
2022/04/09 08:16:59;;;;;;;5.67;3.20;;;6.40;99.90;;;;;;4998030;28;20202;-86
2022/04/09 08:19:26;;;;;;;7.30;3.53;;;6.40;99.90;;;;;;4981411;28;20265;-86
2022/04/09 08:21:55;;;;;;;6.97;3.70;;;6.50;99.90;;;;;;4981496;28;20187;-86
2022/04/09 08:24:20;;;;;;;6.40;3.30;;;6.60;99.90;;;;;;4980423;28;20200;-86
2022/04/09 08:26:46;;;;;;;5.03;3.87;;;6.60;99.90;;;;;;4981314;28;20251;-86
2022/04/09 08:29:18;;;;;;;4.20;3.60;;;6.50;99.90;;;;;;4981469;28;20179;-86
2022/04/09 08:31:53;;;;;;;6.40;3.80;;;6.50;99.90;;;;;;4997003;28;20187;-86
2022/04/09 08:34:43;;;;;;;9.10;3.50;;;6.40;99.90;;;;;;4979704;28;20210;-86
2022/04/09 08:37:29;;;;;;;6.77;3.47;;;6.40;99.90;;;;;;4981279;28;20180;-86
2022/04/09 08:39:55;;;;;;;4.90;3.40;;;6.60;99.90;;;;;;4980589;28;20215;-86
2022/04/09 08:43:06;;;;;;;4.20;3.20;;;6.70;99.90;;;;;;4981180;28;20178;-86
2022/04/09 08:45:35;;;;;;;5.10;2.90;;;6.70;99.90;;;;;;4981440;28;20225;-86
2022/04/09 08:48:05;;;;;;;6.50;3.30;;;6.60;99.90;;;;;;4981145;28;20179;-86
2022/04/09 08:50:31;;;;;;;6.03;2.60;;;6.60;99.90;;;;;;4980805;28;20195;-86
2022/04/09 08:53:02;;;;;;;5.33;3.30;;;6.50;99.90;;;;;;4980791;28;20200;-86
2022/04/09 08:55:28;;;;;;;7.50;2.80;;;6.50;99.90;;;;;;4980935;28;20186;-86
2022/04/09 08:57:54;;;;;;;2.97;2.47;;;6.60;99.90;;;;;;4980741;28;20183;-86
2022/04/09 09:00:20;;;;;;;3.97;2.67;;;6.60;99.90;;;;;;4961350;28;20209;-86
2022/04/09 09:02:51;;;;;;;4.90;2.37;;;6.70;99.90;;;;;;4961344;28;20224;-86
2022/04/09 09:06:02;;;;;;;5.40;2.67;;;6.80;99.90;;;;;;4960839;28;20592;-85
2022/04/09 09:08:37;;;;;;;5.57;2.60;;;6.80;99.90;;;;;;4961773;28;20263;-86
2022/04/09 09:11:03;;;;;;;4.10;2.43;;;6.70;99.90;;;;;;4961081;28;20319;-86
2022/04/09 09:13:29;;;;;;;6.37;2.50;;;6.70;99.90;;;;;;4977193;28;20204;-86
2022/04/09 09:15:55;;;;;;;5.70;2.30;;;6.70;99.90;;;;;;4961123;28;20205;-86
2022/04/09 09:18:26;;;;;;;3.57;2.13;;;6.70;99.90;;;;;;4976980;28;20244;-86
2022/04/09 09:20:53;;;;;;;5.43;2.47;;;6.80;99.90;;;;;;4959671;28;20185;-86
2022/04/09 09:23:21;;;;;;;4.20;2.60;;;6.80;99.90;;;;;;4958948;28;20241;-86
2022/04/09 09:25:57;;;;;;;5.60;2.40;;;6.90;99.90;;;;;;4960964;28;20258;-86
2022/04/09 09:28:32;;;;;;;4.77;2.30;;;6.80;99.90;;;;;;4965669;28;20189;-86
2022/04/09 09:30:59;;;;;;;5.67;2.17;;;6.90;99.90;;;;;;4980154;28;20181;-86
2022/04/09 09:33:26;;;;;;;5.37;2.20;;;6.80;99.90;;;;;;4980216;28;20198;-86
2022/04/09 09:35:59;;;;;;;5.77;2.20;;;6.70;99.90;;;;;;4996750;28;20174;-86
2022/04/09 09:38:31;;;;;;;8.93;2.20;;;6.70;99.90;;;;;;4980165;28;20299;-86
2022/04/09 09:41:37;;;;;;;4.20;1.93;;;6.60;99.90;;;;;;5013621;28;20179;-86
2022/04/09 09:44:05;;;;;;;6.47;2.53;;;6.60;99.90;;;;;;4979882;28;20214;-86
2022/04/09 09:46:31;;;;;;;5.03;2.67;;;6.50;99.90;;;;;;4980246;28;20271;-86
2022/04/09 09:48:58;;;;;;;4.90;2.27;;;6.60;99.90;;;;;;4979960;28;20185;-86
2022/04/09 09:51:24;;;;;;;4.90;2.13;;;6.60;99.90;;;;;;4979816;28;20213;-86
2022/04/09 09:54:04;;;;;;;4.57;2.60;;;6.70;99.90;;;;;;4972141;28;20221;-83
2022/04/09 09:56:47;;;;;;;4.00;2.50;;;6.80;99.90;;;;;;4962777;28;20249;-85
2022/04/09 09:59:17;;;;;;;5.50;2.13;;;7.10;99.90;;;;;;4975883;28;20201;-87
2022/04/09 10:01:54;;;;;;;6.13;2.63;;;7.30;99.90;;;;;;4978482;28;20182;-87
2022/04/09 10:04:23;;;;;;;5.70;2.40;;;7.60;99.90;;;;;;4975754;28;20200;-88
2022/04/09 10:07:11;;;;;;;6.20;2.10;;;7.70;99.90;;;;;;4976580;28;20193;-88
2022/04/09 10:09:53;;;;;;;3.57;2.40;;;7.70;99.90;;;;;;4977048;28;20232;-87
2022/04/09 10:12:28;;;;;;;5.63;2.00;;;7.60;99.90;;;;;;4977959;28;20202;-88
2022/04/09 10:14:58;;;;;;;4.40;2.10;;;7.50;99.90;;;;;;4957577;28;20198;-88
2022/04/09 10:17:26;;;;;;;4.43;1.70;;;7.50;99.90;;;;;;4958678;28;20741;-88
2022/04/09 10:19:56;;;;;;;5.30;1.80;;;7.60;99.90;;;;;;4975892;28;20222;-88
2022/04/09 10:22:35;;;;;;;7.13;4.47;;;7.60;99.90;;;;;;4974432;28;20687;-88
2022/04/09 10:25:04;;;;;;;9.07;3.00;;;7.50;99.90;;;;;;4969874;28;20194;-88
2022/04/09 10:27:47;;;;;;;6.27;3.50;;;7.50;99.90;;;;;;4973980;28;20186;-88
2022/04/09 10:30:22;;;;;;;5.83;3.10;;;7.60;99.90;;;;;;4978742;28;20218;-89
2022/04/09 10:32:52;;;;;;;10.67;7.80;;;7.60;99.90;;;;;;4979928;28;20198;-87
2022/04/09 10:35:27;;;;;;;11.47;6.23;;;7.70;99.90;;;;;;4975817;28;20184;-88
2022/04/09 10:38:20;;;;;;;6.33;5.23;;;7.60;99.90;;;;;;4960767;28;20194;-86
2022/04/09 10:40:48;;;;;;;4.63;2.50;;;7.80;99.90;;;;;;4971782;28;20202;-86
2022/04/09 10:43:24;;;;;;;5.83;2.40;;;8.00;99.90;;;;;;4960227;28;20214;-86
2022/04/09 10:46:16;;;;;;;4.47;2.10;;;8.30;99.90;;;;;;4960372;28;20255;-87
2022/04/09 10:48:44;;;;;;;4.90;2.03;;;8.40;99.90;;;;;;4970050;28;20184;-87
2022/04/09 10:51:11;;;;;;;5.60;1.97;;;8.40;99.90;;;;;;4960694;28;20199;-87
2022/04/09 10:53:50;;;;;;;6.97;2.77;;;8.30;99.90;;;;;;4958215;28;20251;-87
2022/04/09 10:59:27;;;;;;;3.70;2.10;;;8.30;99.90;;;;;;4988945;28;20214;-87
2022/04/09 11:01:54;;;;;;;4.63;1.90;;;8.40;99.90;;;;;;4981377;28;20191;-87
2022/04/09 11:04:35;;;;;;;2.83;1.97;;;8.50;99.90;;;;;;4979621;28;20683;-87
2022/04/09 11:07:03;;;;;;;7.40;2.77;;;8.50;99.90;;;;;;4996662;28;20171;-86
2022/04/09 11:10:14;;;;;;;6.17;1.93;;;8.60;99.90;;;;;;4963846;28;20223;-87
2022/04/09 11:12:46;;;;;;;3.67;1.83;;;8.70;99.90;;;;;;4972540;28;20213;-87
2022/04/09 11:15:16;;;;;;;4.87;2.67;;;8.80;99.90;;;;;;4995536;28;20195;-87
2022/04/09 11:17:45;;;;;;;19.93;11.40;;;8.90;99.90;;;;;;4989197;28;20193;-87
2022/04/09 11:20:16;;;;;;;9.13;5.67;;;8.90;99.90;;;;;;4986832;28;20219;-87
2022/04/09 11:22:43;;;;;;;8.60;4.70;;;8.80;99.90;;;;;;4981306;28;20192;-86
2022/04/09 11:25:24;;;;;;;4.97;2.00;;;9.00;99.90;;;;;;4982505;28;20175;-87
2022/04/09 11:27:51;;;;;;;5.93;2.20;;;9.00;99.90;;;;;;4982740;28;20186;-87
2022/04/09 11:30:19;;;;;;;4.93;2.10;;;9.00;99.90;;;;;;4963129;28;20191;-87
2022/04/09 11:32:48;;;;;;;6.03;1.80;;;9.10;99.90;;;;;;4975444;28;20216;-81
2022/04/09 11:35:17;;;;;;;5.90;2.40;;;9.10;99.90;;;;;;4964996;28;20247;-87
2022/04/09 11:37:50;;;;;;;6.63;2.40;;;9.30;99.90;;;;;;4978016;28;20187;-87
2022/04/09 11:40:21;;;;;;;4.63;2.67;;;9.40;99.90;;;;;;4986730;28;20206;-87
2022/04/09 11:42:47;;;;;;;4.73;2.30;;;9.10;99.90;;;;;;4976949;28;20195;-88
2022/04/09 11:45:36;;;;;;;7.50;2.60;;;9.20;99.90;;;;;;4980381;28;20182;-88
2022/04/09 11:48:17;;;;;;;5.03;2.13;;;9.20;99.90;;;;;;4976720;28;20176;-87
2022/04/09 11:51:02;;;;;;;3.53;1.87;;;9.40;99.90;;;;;;4975913;28;20187;-87
2022/04/09 11:53:28;;;;;;;3.87;2.17;;;9.70;99.90;;;;;;4963862;28;20200;-88
2022/04/09 11:56:00;;;;;;;7.00;2.60;;;9.80;99.90;;;;;;5001400;28;20598;-88
2022/04/09 11:58:35;;;;;;;4.47;1.77;;;9.80;99.90;;;;;;4978380;28;20180;-87
2022/04/09 12:01:05;;;;;;;3.43;1.90;;;9.90;99.90;;;;;;4972065;28;20183;-87
2022/04/09 12:03:31;;;;;;;3.73;1.80;;;10.00;99.90;;;;;;4976344;28;20207;-88
2022/04/09 12:06:00;;;;;;;5.33;1.90;;;10.40;99.90;;;;;;4964330;28;20182;-88
2022/04/09 12:08:28;;;;;;;3.73;1.87;;;10.60;99.90;;;;;;4978619;28;20190;-88
2022/04/09 12:11:11;;;;;;;4.57;1.70;;;10.60;99.90;;;;;;4962445;28;20184;-88
2022/04/09 12:13:38;;;;;;;7.03;1.57;;;10.60;99.90;;;;;;4961389;28;20287;-88
2022/04/09 12:19:51;;;;;;;5.70;1.77;;;10.40;99.90;;;;;;5013502;28;20291;-88
2022/04/09 12:22:22;;;;;;;3.57;1.73;;;10.50;99.90;;;;;;4981028;28;20187;-89
2022/04/09 12:24:58;;;;;;;3.90;1.90;;;10.70;99.90;;;;;;4975864;28;20234;-88
2022/04/09 12:27:44;;;;;;;3.03;1.87;;;11.00;99.90;;;;;;4960265;28;20230;-85
2022/04/09 12:30:14;;;;;;;4.57;2.07;;;10.70;99.90;;;;;;4975170;28;20222;-79
2022/04/09 12:32:41;;;;;;;5.17;2.03;;;10.40;99.90;;;;;;4976193;28;20208;-88
2022/04/09 12:35:10;;;;;;;4.60;3.17;;;10.50;99.90;;;;;;4962952;28;20538;-82
2022/04/09 12:37:48;;;;;;;5.40;2.00;;;10.60;99.90;;;;;;4963880;28;20266;-82
2022/04/09 12:40:22;;;;;;;2.77;1.60;;;10.80;99.90;;;;;;4966055;28;20209;-81
2022/04/09 12:42:52;;;;;;;2.40;1.40;;;11.00;99.90;;;;;;4977770;28;20203;-82
2022/04/09 12:45:22;;;;;;;4.70;1.90;;;10.90;99.90;;;;;;4968221;28;20184;-79
2022/04/09 12:47:59;;;;;;;2.10;1.63;;;11.20;99.90;;;;;;4978829;28;20188;-85
2022/04/09 12:50:28;;;;;;;5.17;1.80;;;11.20;99.90;;;;;;4975155;28;20527;-84
2022/04/09 12:52:59;;;;;;;2.57;1.57;;;11.50;99.90;;;;;;4961020;28;20208;-84
2022/04/09 12:55:26;;;;;;;5.20;1.50;;;11.60;99.90;;;;;;4975210;28;20259;-83
2022/04/09 12:57:53;;;;;;;4.77;2.23;;;11.40;99.90;;;;;;4959104;28;20287;-84
2022/04/09 13:00:21;;;;;;;9.30;4.43;;;11.40;99.90;;;;;;4978540;28;20243;-84
2022/04/09 13:02:49;;;;;;;2.53;1.73;;;11.30;99.90;;;;;;4978548;28;20533;-83
2022/04/09 13:05:16;;;;;;;3.70;1.77;;;10.90;99.90;;;;;;4979637;28;20274;-88
2022/04/09 13:07:43;;;;;;;3.50;1.77;;;10.60;99.90;;;;;;4978128;28;20173;-88
2022/04/09 13:10:14;;;;;;;3.50;1.67;;;10.50;99.90;;;;;;4980289;28;20184;-88
2022/04/09 13:12:44;;;;;;;3.63;1.40;;;10.30;99.90;;;;;;4981958;28;20222;-88
2022/04/09 13:15:11;;;;;;;3.53;1.63;;;10.20;99.90;;;;;;4964464;28;20191;-87
2022/04/09 13:17:37;;;;;;;3.13;1.50;;;10.30;99.90;;;;;;4965120;28;20305;-87